createdAt,value
2022-10-14T00:01:42.172Z,61.83
2022-10-14T00:04:08.786Z,58.43
2022-10-14T00:06:35.319Z,50.00
2022-10-14T00:09:05.487Z,61.07
2022-10-14T00:11:32.874Z,59.70
2022-10-14T00:14:02.209Z,50.33
2022-10-14T00:16:31.294Z,68.43
2022-10-14T00:18:58.375Z,66.30
2022-10-14T00:21:25.256Z,55.67
2022-10-14T00:23:51.682Z,61.57
2022-10-14T00:26:29.238Z,61.57
2022-10-14T00:28:57.167Z,48.40
2022-10-14T00:31:24.405Z,58.33
2022-10-14T00:33:50.913Z,46.97
2022-10-14T00:36:20.121Z,50.87
2022-10-14T00:38:47.056Z,49.17
2022-10-14T00:41:19.765Z,49.47
2022-10-14T00:43:55.704Z,54.93
2022-10-14T00:46:23.530Z,56.07
2022-10-14T00:48:50.213Z,48.80
2022-10-14T00:51:17.306Z,47.03
2022-10-14T00:53:44.334Z,48.30
2022-10-14T00:56:11.669Z,52.07
2022-10-14T00:58:38.686Z,47.07
2022-10-14T01:01:05.353Z,46.47
2022-10-14T01:03:33.217Z,52.57
2022-10-14T01:06:15.246Z,49.00
2022-10-14T01:08:53.260Z,46.07
2022-10-14T01:12:09.764Z,45.53
2022-10-14T01:14:59.887Z,48.97
2022-10-14T01:17:33.268Z,45.50
2022-10-14T01:20:40.112Z,49.67
2022-10-14T01:23:19.046Z,50.67
2022-10-14T01:26:02.241Z,49.73
2022-10-14T01:28:51.199Z,56.20
2022-10-14T01:31:24.317Z,56.37
2022-10-14T01:33:53.771Z,53.20
2022-10-14T01:36:33.988Z,46.87
2022-10-14T01:39:05.936Z,54.90
2022-10-14T01:41:38.857Z,48.07
2022-10-14T01:44:10.644Z,50.97
2022-10-14T01:46:38.990Z,63.40
2022-10-14T01:49:10.548Z,52.60
2022-10-14T01:51:41.624Z,59.17
2022-10-14T01:54:15.425Z,58.67
2022-10-14T01:56:43.128Z,59.60
2022-10-14T01:59:10.810Z,57.33
2022-10-14T02:01:37.408Z,54.07
2022-10-14T02:04:14.448Z,62.03
2022-10-14T02:06:43.740Z,59.53
2022-10-14T02:09:30.812Z,72.80
2022-10-14T02:12:15.812Z,85.77
2022-10-14T02:15:11.036Z,59.77
2022-10-14T02:17:46.173Z,58.10
2022-10-14T02:20:27.753Z,62.00
2022-10-14T02:23:21.424Z,62.57
2022-10-14T02:25:49.411Z,65.87
2022-10-14T02:28:19.577Z,68.97
2022-10-14T02:30:52.238Z,69.30
2022-10-14T02:33:21.073Z,62.60
2022-10-14T02:35:49.159Z,63.20
2022-10-14T02:38:16.209Z,70.77
2022-10-14T02:40:46.000Z,60.53
2022-10-14T02:43:12.850Z,78.83
2022-10-14T02:45:40.506Z,58.47
2022-10-14T02:48:07.581Z,71.17
2022-10-14T02:50:34.127Z,67.03
2022-10-14T02:53:00.612Z,79.07
2022-10-14T02:55:27.089Z,73.33
2022-10-14T02:57:53.586Z,56.83
2022-10-14T03:00:20.982Z,54.30
2022-10-14T03:02:47.437Z,55.60
2022-10-14T03:05:13.949Z,69.83
2022-10-14T03:07:40.509Z,60.73
2022-10-14T03:10:07.189Z,54.60
2022-10-14T03:12:33.650Z,56.80
2022-10-14T03:15:00.097Z,54.57
2022-10-14T03:17:26.774Z,56.17
2022-10-14T03:19:53.206Z,52.23
2022-10-14T03:22:20.152Z,68.80
2022-10-14T03:24:46.828Z,55.20
2022-10-14T03:27:13.273Z,56.80
2022-10-14T03:29:40.766Z,57.27
2022-10-14T03:32:07.235Z,48.00
2022-10-14T03:34:33.668Z,50.10
2022-10-14T03:37:00.126Z,54.97
2022-10-14T03:39:26.588Z,50.13
2022-10-14T03:41:53.045Z,44.83
2022-10-14T03:44:19.524Z,53.90
2022-10-14T03:46:46.044Z,51.83
2022-10-14T03:49:12.998Z,44.40
2022-10-14T03:51:39.514Z,49.43
2022-10-14T03:54:06.311Z,47.47
2022-10-14T03:56:32.781Z,40.60
2022-10-14T03:58:59.227Z,45.50
2022-10-14T04:01:25.809Z,43.90
2022-10-14T04:03:52.321Z,45.90
2022-10-14T04:06:18.789Z,36.50
2022-10-14T04:08:45.261Z,42.73
2022-10-14T04:11:11.762Z,49.23
2022-10-14T04:13:38.214Z,45.13
2022-10-14T04:16:09.094Z,48.00
2022-10-14T04:18:36.150Z,44.97
2022-10-14T04:21:05.084Z,44.20
2022-10-14T04:23:32.106Z,48.07
2022-10-14T04:25:58.699Z,45.63
2022-10-14T04:28:25.225Z,48.70
2022-10-14T04:30:51.718Z,48.03
2022-10-14T04:33:18.157Z,53.17
2022-10-14T04:35:44.609Z,57.90
2022-10-14T04:38:11.088Z,56.17
2022-10-14T04:40:37.517Z,43.43
2022-10-14T04:43:04.036Z,43.13
2022-10-14T04:45:30.490Z,48.33
2022-10-14T04:47:56.954Z,52.03
2022-10-14T04:50:23.524Z,48.63
2022-10-14T04:52:49.982Z,37.30
2022-10-14T04:55:16.448Z,42.87
2022-10-14T04:57:43.953Z,44.53
2022-10-14T05:00:13.792Z,42.43
2022-10-14T05:02:40.277Z,43.43
2022-10-14T05:05:07.329Z,42.33
2022-10-14T05:07:34.532Z,48.70
2022-10-14T05:10:01.557Z,49.77
2022-10-14T05:12:28.461Z,54.67
2022-10-14T05:14:55.123Z,41.77
2022-10-14T05:17:21.798Z,41.47
2022-10-14T05:19:48.564Z,44.93
2022-10-14T05:22:15.221Z,42.43
2022-10-14T05:24:41.901Z,41.63
2022-10-14T05:27:08.376Z,43.23
2022-10-14T05:29:34.821Z,44.50
2022-10-14T05:32:01.389Z,43.73
2022-10-14T05:34:27.826Z,45.40
2022-10-14T05:36:54.316Z,45.10
2022-10-14T05:39:20.785Z,40.83
2022-10-14T05:41:47.247Z,45.93
2022-10-14T05:44:13.673Z,43.87
2022-10-14T05:46:40.122Z,44.40
2022-10-14T05:49:06.653Z,43.63
2022-10-14T05:51:33.497Z,41.50
2022-10-14T05:54:00.288Z,43.07
2022-10-14T05:56:26.880Z,43.77
2022-10-14T05:58:53.429Z,45.37
2022-10-14T06:01:19.878Z,47.83
2022-10-14T06:03:50.095Z,42.43
2022-10-14T06:06:16.833Z,41.80
2022-10-14T06:08:43.784Z,45.10
2022-10-14T06:11:10.689Z,49.47
2022-10-14T06:13:37.601Z,45.93
2022-10-14T06:16:05.680Z,51.87
2022-10-14T06:18:33.051Z,49.53
2022-10-14T06:21:00.091Z,43.07
2022-10-14T06:23:27.079Z,51.93
2022-10-14T06:25:53.915Z,54.80
2022-10-14T06:28:20.470Z,52.53
2022-10-14T06:30:54.280Z,51.90
2022-10-14T06:33:21.449Z,59.60
2022-10-14T06:35:48.308Z,50.67
2022-10-14T06:38:15.026Z,50.70
2022-10-14T06:40:41.586Z,53.73
2022-10-14T06:43:08.053Z,54.50
2022-10-14T06:45:34.506Z,55.07
2022-10-14T06:48:00.995Z,55.27
2022-10-14T06:50:27.415Z,58.03
2022-10-14T06:52:53.864Z,62.43
2022-10-14T06:55:20.298Z,58.77
2022-10-14T06:57:46.778Z,56.80
2022-10-14T07:00:13.728Z,55.47
2022-10-14T07:02:40.284Z,57.00
2022-10-14T07:05:06.906Z,54.63
2022-10-14T07:07:33.523Z,52.50
2022-10-14T07:10:00.081Z,55.40
2022-10-14T07:12:26.736Z,57.57
2022-10-14T07:14:53.288Z,62.70
2022-10-14T07:17:20.128Z,56.20
2022-10-14T07:19:46.915Z,52.57
2022-10-14T07:22:13.419Z,53.63
2022-10-14T07:24:39.854Z,51.03
2022-10-14T07:27:09.190Z,51.97
2022-10-14T07:29:35.699Z,47.57
2022-10-14T07:32:02.370Z,49.30
2022-10-14T07:34:29.010Z,46.33
2022-10-14T07:36:55.512Z,47.10
2022-10-14T07:39:21.948Z,45.27
2022-10-14T07:41:48.523Z,45.80
2022-10-14T07:44:16.781Z,43.57
2022-10-14T07:46:44.805Z,43.80
2022-10-14T07:49:14.897Z,44.37
2022-10-14T07:51:42.274Z,52.60
2022-10-14T07:54:13.392Z,44.33
2022-10-14T07:56:42.943Z,47.93
2022-10-14T07:59:09.956Z,51.20
2022-10-14T08:01:37.145Z,50.60
2022-10-14T08:04:04.077Z,45.80
2022-10-14T08:06:30.630Z,46.83
2022-10-14T08:08:57.170Z,43.67
2022-10-14T08:11:26.156Z,43.83
2022-10-14T08:13:53.209Z,50.63
2022-10-14T08:16:27.924Z,46.73
2022-10-14T08:18:59.479Z,44.83
2022-10-14T08:21:26.941Z,44.43
2022-10-14T08:23:54.933Z,48.60
2022-10-14T08:26:22.669Z,48.43
2022-10-14T08:28:50.308Z,43.87
2022-10-14T08:31:17.446Z,44.50
2022-10-14T08:33:44.044Z,47.20
2022-10-14T08:36:10.544Z,43.33
2022-10-14T08:38:37.031Z,43.07
2022-10-14T08:41:03.437Z,42.00
2022-10-14T08:43:36.892Z,45.07
2022-10-14T08:46:16.148Z,42.43
2022-10-14T08:48:42.966Z,41.67
2022-10-14T08:51:14.854Z,44.23
2022-10-14T08:53:46.606Z,43.87
2022-10-14T08:56:13.936Z,42.27
2022-10-14T08:58:49.832Z,41.40
2022-10-14T09:01:26.848Z,46.83
2022-10-14T09:04:00.167Z,44.13
2022-10-14T09:06:29.054Z,47.47
2022-10-14T09:09:06.441Z,47.10
2022-10-14T09:11:39.340Z,47.77
2022-10-14T09:14:07.866Z,47.00
2022-10-14T09:16:36.679Z,50.50
2022-10-14T09:19:05.813Z,47.40
2022-10-14T09:24:23.929Z,47.30
2022-10-14T09:27:23.566Z,48.97
2022-10-14T09:29:52.873Z,44.57
2022-10-14T09:32:29.767Z,44.60
2022-10-14T09:34:57.452Z,46.40
2022-10-14T09:37:35.242Z,46.87
2022-10-14T09:40:25.009Z,43.83
2022-10-14T09:43:09.697Z,52.33
2022-10-14T09:45:51.446Z,46.53
2022-10-14T09:48:38.108Z,45.20
2022-10-14T09:51:10.126Z,41.70
2022-10-14T09:53:41.135Z,40.43
2022-10-14T09:56:08.775Z,41.67
2022-10-14T09:58:53.531Z,43.63
2022-10-14T10:01:22.112Z,43.70
2022-10-14T10:03:50.318Z,42.23
2022-10-14T10:06:19.304Z,43.03
2022-10-14T10:09:04.045Z,43.13
2022-10-14T10:11:38.402Z,42.93
2022-10-14T10:14:23.724Z,42.30
2022-10-14T10:19:34.859Z,43.13
2022-10-14T10:25:01.151Z,39.77
2022-10-14T10:27:55.026Z,40.87
2022-10-14T10:30:21.432Z,40.97
2022-10-14T10:33:09.658Z,38.70
2022-10-14T10:35:54.077Z,36.60
2022-10-14T10:38:39.978Z,42.20
2022-10-14T10:41:15.623Z,37.60
2022-10-14T10:44:00.317Z,38.87
2022-10-14T10:47:05.783Z,37.70
2022-10-14T10:49:50.854Z,38.33
2022-10-14T10:52:35.499Z,38.63
2022-10-14T10:55:12.674Z,38.47
2022-10-14T10:57:53.046Z,37.90
2022-10-14T11:03:30.985Z,38.00
2022-10-14T11:06:03.432Z,37.17
2022-10-14T11:09:18.119Z,37.27
2022-10-14T11:12:15.659Z,39.20
2022-10-14T11:15:00.535Z,39.03
2022-10-14T11:18:05.376Z,39.10
2022-10-14T11:20:40.071Z,38.53
2022-10-14T11:23:57.088Z,38.50
2022-10-14T11:26:59.720Z,37.33
2022-10-14T11:29:35.533Z,35.83
2022-10-14T11:32:12.259Z,36.23
2022-10-14T11:35:01.421Z,34.83
2022-10-14T11:37:46.630Z,31.77
2022-10-14T11:40:26.170Z,33.37
2022-10-14T11:43:26.881Z,34.53
2022-10-14T11:45:57.698Z,33.33
2022-10-14T11:48:24.161Z,34.40
2022-10-14T11:50:56.376Z,34.37
2022-10-14T11:53:52.046Z,35.97
2022-10-14T11:56:37.249Z,35.27
2022-10-14T11:59:24.997Z,35.43
2022-10-14T12:01:55.883Z,33.40
2022-10-14T12:04:32.043Z,32.50
2022-10-14T12:07:10.986Z,30.37
2022-10-14T12:09:50.635Z,32.50
2022-10-14T12:12:20.284Z,30.73
2022-10-14T12:14:52.538Z,32.07
2022-10-14T12:17:23.634Z,29.93
2022-10-14T12:19:51.302Z,32.23
2022-10-14T12:22:26.104Z,32.17
2022-10-14T12:24:58.994Z,29.93
2022-10-14T12:27:27.256Z,32.10
2022-10-14T12:30:00.219Z,32.80
2022-10-14T12:32:28.047Z,30.67
2022-10-14T12:34:56.303Z,30.50
2022-10-14T12:37:42.846Z,28.83
2022-10-14T12:40:12.875Z,26.40
2022-10-14T12:42:42.478Z,26.90
2022-10-14T12:45:35.537Z,25.67
2022-10-14T12:48:08.078Z,25.63
2022-10-14T12:50:38.433Z,28.77
2022-10-14T12:53:17.425Z,27.10
2022-10-14T12:55:53.524Z,27.23
2022-10-14T12:58:24.250Z,26.43
2022-10-14T13:01:00.558Z,25.83
2022-10-14T13:03:32.040Z,25.97
2022-10-14T13:06:26.432Z,24.13
2022-10-14T13:09:11.410Z,23.87
2022-10-14T13:11:58.578Z,22.67
2022-10-14T13:14:31.144Z,24.30
2022-10-14T13:17:02.553Z,23.97
2022-10-14T13:19:35.140Z,24.27
2022-10-14T13:24:43.537Z,24.87
2022-10-14T13:27:30.081Z,24.57
2022-10-14T13:30:15.264Z,25.13
2022-10-14T13:32:50.426Z,23.80
2022-10-14T13:35:43.961Z,24.83
2022-10-14T13:38:15.626Z,24.77
2022-10-14T13:40:53.756Z,25.50
2022-10-14T13:43:26.701Z,23.87
2022-10-14T13:45:58.108Z,24.10
2022-10-14T13:48:31.880Z,23.30
2022-10-14T13:51:31.464Z,25.73
2022-10-14T13:54:09.719Z,25.03
2022-10-14T13:56:36.149Z,24.67
2022-10-14T13:59:05.436Z,24.33
2022-10-14T14:01:39.241Z,24.57
2022-10-14T14:04:06.048Z,25.53
2022-10-14T14:06:40.073Z,24.40
2022-10-14T14:09:22.543Z,23.63
2022-10-14T14:11:50.543Z,22.63
2022-10-14T14:14:26.804Z,23.13
2022-10-14T14:16:58.502Z,22.40
2022-10-14T14:19:34.242Z,23.07
2022-10-14T14:22:06.670Z,21.00
2022-10-14T14:24:34.286Z,21.37
2022-10-14T14:27:01.388Z,20.50
2022-10-14T14:29:31.305Z,21.83
2022-10-14T14:32:07.943Z,20.10
2022-10-14T14:34:36.437Z,19.67
2022-10-14T14:37:32.037Z,19.57
2022-10-14T14:39:57.678Z,23.13
2022-10-14T14:42:33.063Z,21.93
2022-10-14T14:45:04.917Z,21.37
2022-10-14T14:47:31.806Z,20.47
2022-10-14T14:50:18.299Z,23.77
2022-10-14T14:52:47.238Z,23.17
2022-10-14T14:55:33.379Z,22.83
2022-10-14T14:58:01.021Z,22.03
2022-10-14T15:00:27.477Z,22.97
2022-10-14T15:02:59.942Z,22.03
2022-10-14T15:05:27.021Z,21.90
2022-10-14T15:07:53.736Z,23.77
2022-10-14T15:10:27.575Z,23.77
2022-10-14T15:12:56.334Z,24.83
2022-10-14T15:15:30.802Z,24.10
2022-10-14T15:18:12.931Z,24.60
2022-10-14T15:20:39.987Z,36.17
2022-10-14T15:23:38.055Z,29.83
2022-10-14T15:26:20.124Z,25.83
2022-10-14T15:28:46.639Z,21.97
2022-10-14T15:31:16.569Z,22.50
2022-10-14T15:33:43.063Z,23.60
2022-10-14T15:36:10.753Z,22.70
2022-10-14T15:38:37.227Z,23.43
2022-10-14T15:41:05.333Z,23.47
2022-10-14T15:43:32.759Z,23.80
2022-10-14T15:46:18.455Z,23.77
2022-10-14T15:48:52.651Z,22.87
2022-10-14T15:51:20.332Z,23.00
2022-10-14T15:53:46.821Z,24.27
2022-10-14T15:56:13.264Z,24.10
2022-10-14T15:58:39.722Z,23.70
2022-10-14T16:01:06.620Z,24.30
2022-10-14T16:03:37.209Z,23.80
2022-10-14T16:06:05.422Z,25.50
2022-10-14T16:08:31.909Z,23.67
2022-10-14T16:10:59.168Z,26.53
2022-10-14T16:13:25.740Z,25.10
2022-10-14T16:15:54.848Z,24.70
2022-10-14T16:18:23.286Z,24.63
2022-10-14T16:20:49.807Z,25.63
2022-10-14T16:23:18.288Z,26.90
2022-10-14T16:25:46.644Z,27.60
2022-10-14T16:28:13.425Z,27.37
2022-10-14T16:30:44.955Z,27.57
2022-10-14T16:35:49.266Z,25.57
2022-10-14T16:38:15.746Z,25.00
2022-10-14T16:40:42.217Z,24.93
2022-10-14T16:43:09.511Z,24.57
2022-10-14T16:45:36.266Z,25.77
2022-10-14T16:48:02.994Z,28.47
2022-10-14T16:50:29.514Z,31.77
2022-10-14T16:53:34.406Z,32.30
2022-10-14T16:56:00.894Z,31.20
2022-10-14T16:58:28.112Z,30.67
2022-10-14T17:00:55.132Z,28.87
2022-10-14T17:03:21.575Z,28.17
2022-10-14T17:05:48.114Z,29.87
2022-10-14T17:08:14.631Z,28.43
2022-10-14T17:10:41.081Z,26.90
2022-10-14T17:13:08.227Z,24.50
2022-10-14T17:15:34.690Z,26.73
2022-10-14T17:18:01.232Z,25.73
2022-10-14T17:20:28.266Z,25.60
2022-10-14T17:22:55.166Z,28.57
2022-10-14T17:25:22.454Z,29.23
2022-10-14T17:27:49.422Z,32.33
2022-10-14T17:30:16.985Z,34.67
2022-10-14T17:32:43.870Z,28.33
2022-10-14T17:35:14.359Z,25.33
2022-10-14T17:37:42.482Z,23.80
2022-10-14T17:40:09.497Z,22.60
2022-10-14T17:42:35.982Z,21.40
2022-10-14T17:45:02.877Z,20.67
2022-10-14T17:47:29.637Z,21.27
2022-10-14T17:49:56.084Z,20.40
2022-10-14T17:52:22.548Z,20.17
2022-10-14T17:54:49.002Z,21.77
2022-10-14T17:57:15.435Z,20.83
2022-10-14T17:59:41.878Z,20.33
2022-10-14T18:02:14.994Z,20.60
2022-10-14T18:04:41.881Z,22.10
2022-10-14T18:07:09.048Z,19.77
2022-10-14T18:09:35.593Z,21.13
2022-10-14T18:12:10.208Z,21.10
2022-10-14T18:14:41.048Z,20.97
2022-10-14T18:17:10.817Z,22.23
2022-10-14T18:19:37.337Z,23.63
2022-10-14T18:22:03.960Z,22.33
2022-10-14T18:24:30.484Z,24.17
2022-10-14T18:26:57.782Z,22.40
2022-10-14T18:29:24.612Z,21.03
2022-10-14T18:34:18.648Z,21.33
2022-10-14T18:36:45.526Z,21.20
2022-10-14T18:39:15.545Z,20.30
2022-10-14T18:41:43.894Z,20.83
2022-10-14T18:44:10.436Z,19.80
2022-10-14T18:46:38.349Z,19.53
2022-10-14T18:49:06.466Z,18.93
2022-10-14T18:51:35.406Z,19.47
2022-10-14T18:54:05.334Z,21.10
2022-10-14T18:56:34.720Z,18.80
2022-10-14T19:01:36.511Z,19.50
2022-10-14T19:04:05.583Z,19.13
2022-10-14T19:06:32.928Z,20.33
2022-10-14T19:09:02.792Z,18.50
2022-10-14T19:11:30.369Z,20.10
2022-10-14T19:13:58.716Z,18.30
2022-10-14T19:16:27.394Z,18.20
2022-10-14T19:19:01.730Z,19.33
2022-10-14T19:21:30.549Z,18.37
2022-10-14T19:23:59.199Z,18.10
2022-10-14T19:26:28.670Z,18.47
2022-10-14T19:28:58.526Z,17.93
2022-10-14T19:31:29.717Z,17.60
2022-10-14T19:33:56.949Z,15.50
2022-10-14T19:36:25.566Z,16.80
2022-10-14T19:39:00.049Z,16.67
2022-10-14T19:41:28.529Z,17.00
2022-10-14T19:43:56.544Z,16.37
2022-10-14T19:46:26.596Z,16.30
2022-10-14T19:48:55.693Z,14.70
2022-10-14T19:51:22.244Z,14.70
2022-10-14T19:53:49.524Z,14.10
2022-10-14T19:56:16.006Z,13.30
2022-10-14T19:58:44.777Z,13.80
2022-10-14T20:01:16.927Z,13.37
2022-10-14T20:03:43.622Z,13.67
2022-10-14T20:06:11.918Z,14.40
2022-10-14T20:08:38.481Z,14.17
2022-10-14T20:11:09.847Z,14.90
2022-10-14T20:13:37.667Z,15.10
2022-10-14T20:16:05.932Z,14.90
2022-10-14T20:18:32.670Z,15.73
2022-10-14T20:21:00.849Z,15.23
2022-10-14T20:23:27.701Z,15.33
2022-10-14T20:26:05.974Z,16.17
2022-10-14T20:28:35.432Z,20.40
2022-10-14T20:31:02.088Z,20.93
2022-10-14T20:33:31.894Z,17.83
2022-10-14T20:36:05.874Z,22.90
2022-10-14T20:38:32.913Z,23.20
2022-10-14T20:41:07.584Z,25.50
2022-10-14T20:43:34.177Z,20.60
2022-10-14T20:46:00.898Z,19.03
2022-10-14T20:48:27.376Z,18.97
2022-10-14T20:50:53.792Z,19.50
2022-10-14T20:53:20.281Z,16.50
2022-10-14T20:55:46.742Z,16.87
2022-10-14T20:58:13.253Z,17.37
2022-10-14T21:00:39.744Z,16.87
2022-10-14T21:03:06.213Z,15.97
2022-10-14T21:05:36.871Z,15.67
2022-10-14T21:08:04.484Z,15.87
2022-10-14T21:10:31.006Z,15.70
2022-10-14T21:12:57.503Z,16.40
2022-10-14T21:15:26.868Z,16.43
2022-10-14T21:17:53.930Z,16.37
2022-10-14T21:20:20.536Z,16.30
2022-10-14T21:22:47.016Z,15.87
2022-10-14T21:25:14.227Z,17.80
2022-10-14T21:27:40.949Z,15.67
2022-10-14T21:30:08.011Z,17.53
2022-10-14T21:32:34.469Z,14.90
2022-10-14T21:35:00.933Z,14.47
2022-10-14T21:37:27.386Z,13.93
2022-10-14T21:39:53.937Z,14.33
2022-10-14T21:42:20.737Z,13.57
2022-10-14T21:44:47.391Z,14.17
2022-10-14T21:47:13.898Z,14.60
2022-10-14T21:49:42.650Z,14.43
2022-10-14T21:52:09.120Z,16.47
2022-10-14T21:54:35.570Z,15.17
2022-10-14T21:57:02.023Z,14.80
2022-10-14T21:59:28.591Z,15.60
2022-10-14T22:01:59.005Z,14.47
2022-10-14T22:04:35.936Z,15.37
2022-10-14T22:07:06.590Z,14.60
2022-10-14T22:09:33.054Z,15.23
2022-10-14T22:11:59.493Z,17.27
2022-10-14T22:14:25.961Z,16.53
2022-10-14T22:16:52.413Z,14.77
2022-10-14T22:19:18.918Z,17.17
2022-10-14T22:21:46.408Z,15.93
2022-10-14T22:24:12.987Z,16.10
2022-10-14T22:26:40.513Z,16.37
2022-10-14T22:29:10.685Z,15.77
2022-10-14T22:31:37.961Z,16.90
2022-10-14T22:34:06.328Z,16.27
2022-10-14T22:36:33.607Z,15.33
2022-10-14T22:39:05.845Z,15.83
2022-10-14T22:41:35.765Z,15.40
2022-10-14T22:44:04.548Z,15.27
2022-10-14T22:46:32.946Z,16.73
2022-10-14T22:49:00.851Z,16.53
2022-10-14T22:51:36.146Z,16.17
2022-10-14T22:54:03.164Z,17.60
2022-10-14T22:56:31.244Z,17.67
2022-10-14T22:59:05.611Z,18.43
2022-10-14T23:01:32.297Z,18.90
2022-10-14T23:03:59.664Z,17.80
2022-10-14T23:06:26.700Z,19.23
2022-10-14T23:08:54.372Z,19.33
2022-10-14T23:11:22.289Z,18.27
2022-10-14T23:13:49.106Z,18.27
2022-10-14T23:16:19.048Z,18.13
2022-10-14T23:18:46.148Z,19.03
2022-10-14T23:21:16.811Z,19.17
2022-10-14T23:23:43.828Z,21.20
2022-10-14T23:26:12.054Z,18.80
2022-10-14T23:28:39.390Z,18.47
2022-10-14T23:31:14.171Z,19.63
2022-10-14T23:33:41.084Z,18.13
2022-10-14T23:36:10.066Z,17.83
2022-10-14T23:38:36.933Z,19.27
2022-10-14T23:41:04.334Z,19.80
2022-10-14T23:43:31.150Z,19.50
2022-10-14T23:45:57.844Z,20.13
2022-10-14T23:48:24.977Z,19.27
2022-10-14T23:50:51.582Z,19.40
2022-10-14T23:53:18.531Z,19.50
2022-10-14T23:55:45.449Z,22.40
2022-10-14T23:58:12.676Z,22.57
